Airfield :
LOGIN :

Register | Disclaimer

   EN    FR    IT 

 










Legend :    VFR   Marginal VFR   IFR   Intensive IFR   Very Intensive IFR
Visi :
Ceiling :
>= 8 km
>= 3000ft
5 to 8 km
1000 to 3000 ft
1500m to 5 km
500 to 1000 ft
800 to 1500m
200 to 500 ft
< 800m
< 200 ft
Symbols :   Thunderstorms  Fog  Heavy snow  Heavy precipitations  Wind > 20 kt
SIGMETs :     Misc.  Thunderstorms  Icing  Turbulence  Mountain Waves  Volcanic Ashes







- Airport Elevation : 302 ft
- IATA code : CGN


EDDK - Cologne Bonn

CURRENT METAR :
  • 141720Z 28009KT 9999 -SHRA FEW023CB BKN065 19/17 Q1016 RESHRA NOSIG

EXPIRED METARs :
  • 141650Z 29014KT 9999 SHRA SCT037CB BKN065 19/16 Q1016 BECMG NSW
  • 141620Z 26015KT 9999 VCSH FEW046CB SCT080 22/15 Q1016 NOSIG
  • 141550Z 26013KT 9999 VCSH FEW046CB 23/15 Q1016 NOSIG
  • 141520Z 26014KT 9999 VCSH FEW043CB SCT065 23/15 Q1016 RESHRA NOSIG
  • 141450Z 27020KT 9999 SHRA SCT039CB BKN065 21/15 Q1015 BECMG 27013KT NSW

TAF TAF EDDK
Valid from the 14 at 12:00 until the 15 at 18:00 UTC


141100Z 1412/1518 26012KT 9999 BKN035
BECMG 1417/1420 29007KT
BECMG 1422/1501 VRB03KT
BECMG 1509/1512 26006KT
No reported NOTAMs for that airfield.



MET'MAP, your aeronautical weather chart ! - Copyright ORBIFLY December 2007 - Disclaimer

ORBIFLY MET'MAP TEAM :

Programming & Development : Alexandra Zaïnal
Concept & Development : Baudouin d'Aumeries
Co-Development & Prog : Marc-Olivier Méhu
Technical & hardware support : Manuel Goepfert

Contact : metmap@orbifly.com




SOURCES & CREDITS :

   NOAA